メインページ
METAR-TAF:

METAR-TAF

空港 :

カイエンヌ, フランス領ギアナ

カイエンヌ・フェリックス・エブエ国際空港

緯度: 04-50N, 経度: 052-22W, 海抜: 105m

現時点の気象観測

当レポートは28分前の17:00(UTC)に作成
北東の風 9kt、からの間で変化する
気温 33°C
湿度 59%
気圧 1010 hPa
視程10km以上
高度4200ftの千切れ雲あり
高度5000ftの千切れ雲あり

METAR: SOCA 231700Z AUTO 04009KT 350V090 9999 BKN042 BKN050 33/24 Q1010 TEMPO 3000 SHRA FEW015TCU

時間: 14:28 (17:28 UTC)

予報

当レポートは6時間28分前の11:00(UTC)に作成
予報は23日の 12時(UTC)から 24日の 12時(UTC)まで有効
変向風 2kt
視程10km以上
1,500メートル以下は雲なし、積乱雲なし
23日の 1300時(UTC)から
東/北東の風 10kt
視程10km以上
高度2000ftの雲は散在している
確率 40% :
23日の 15時(UTC)から 23日の 20時(UTC)まで一時的に
視程: 3000m
高度1500ftの雲はほとんどない, 塔状積雲.
にわか雨
23日の 2200時(UTC)から
変向風 2kt
視程10km以上
1,500メートル以下は雲なし、積乱雲なし

TAF: SOCA 231100Z 2312/2412 VRB02KT CAVOK FM231300 07010KT 9999 SCT020 PROB40 TEMPO 2315/2320 3000 SHRA FEW015TCU FM232200 VRB02KT CAVOK

4,000以上の空港の気象観測と天気予報(METAR報とTAF報)

利用可能な観測所は地図上に黄色い丸と赤い丸で示す。

丸の上にカーソルを重ねると観測所名を参照できる。

次にクリックすると気象観測と天気予報を参照できる。

マップの切り替え:黒色「×」印の緑ボタンをクリックして拡大、「-」印の緑ボタンをクリックして縮小、緑色の三角印をクリックして隣りの地図に切り替え


METAR-TAF: